createdAt,value
2023-03-31T00:00:00.666Z,6.28
2023-03-31T00:02:29.992Z,6.97
2023-03-31T00:04:59.864Z,6.53
2023-03-31T00:07:27.134Z,7.18
2023-03-31T00:10:10.381Z,5.65
2023-03-31T00:12:43.632Z,5.57
2023-03-31T00:15:10.665Z,5.93
2023-03-31T00:17:37.280Z,6.22
2023-03-31T00:20:05.771Z,6.85
2023-03-31T00:22:32.379Z,6.43
2023-03-31T00:24:58.980Z,6.25
2023-03-31T00:27:28.272Z,6.22
2023-03-31T00:29:55.589Z,6.90
2023-03-31T00:32:22.209Z,6.95
2023-03-31T00:34:48.825Z,5.53
2023-03-31T00:37:16.132Z,7.05
2023-03-31T00:39:43.316Z,5.72
2023-03-31T00:42:13.097Z,6.78
2023-03-31T00:44:59.164Z,4.95
2023-03-31T00:47:25.734Z,5.15
2023-03-31T00:49:55.019Z,4.60
2023-03-31T00:52:24.537Z,5.47
2023-03-31T00:54:53.854Z,4.72
2023-03-31T00:57:20.907Z,5.15
2023-03-31T00:59:51.444Z,5.43
2023-03-31T01:02:18.144Z,4.05
2023-03-31T01:04:47.005Z,4.47
2023-03-31T01:07:22.361Z,4.47
2023-03-31T01:09:49.035Z,5.75
2023-03-31T01:12:16.245Z,4.15
2023-03-31T01:14:42.880Z,4.72
2023-03-31T01:17:09.794Z,4.55
2023-03-31T01:20:12.067Z,5.53
2023-03-31T01:22:54.561Z,4.18
2023-03-31T01:26:16.897Z,4.53
2023-03-31T01:29:04.916Z,3.78
2023-03-31T01:31:40.391Z,3.80
2023-03-31T01:34:57.877Z,3.97
2023-03-31T01:37:48.628Z,4.70
2023-03-31T01:40:26.156Z,4.53
2023-03-31T01:42:57.650Z,4.65
2023-03-31T01:45:39.021Z,5.35
2023-03-31T01:48:14.354Z,5.97
2023-03-31T01:50:47.912Z,4.28
2023-03-31T01:53:51.170Z,5.00
2023-03-31T01:56:38.320Z,5.03
2023-03-31T01:59:14.494Z,4.00
2023-03-31T02:02:08.600Z,3.40
2023-03-31T02:04:42.387Z,5.70
2023-03-31T02:07:19.026Z,3.85
2023-03-31T02:09:49.406Z,3.75
2023-03-31T02:12:16.517Z,4.50
2023-03-31T02:14:44.648Z,3.30
2023-03-31T02:17:15.158Z,6.60
2023-03-31T02:19:41.750Z,3.60
2023-03-31T02:22:08.463Z,5.18
2023-03-31T02:24:36.420Z,4.22
2023-03-31T02:27:23.133Z,4.72
2023-03-31T02:29:49.795Z,4.40
2023-03-31T02:32:40.542Z,3.42
2023-03-31T02:35:10.422Z,4.60
2023-03-31T02:37:37.032Z,3.78
2023-03-31T02:40:10.564Z,4.55
2023-03-31T02:42:40.569Z,3.60
2023-03-31T02:45:27.876Z,3.03
2023-03-31T02:47:54.808Z,3.70
2023-03-31T02:50:21.776Z,5.00
2023-03-31T02:53:03.997Z,4.32
2023-03-31T02:55:46.186Z,5.10
2023-03-31T02:58:51.165Z,3.40
2023-03-31T03:01:36.337Z,3.53
2023-03-31T03:04:43.881Z,3.60
2023-03-31T03:07:18.166Z,3.67
2023-03-31T03:09:50.980Z,4.32
2023-03-31T03:12:32.794Z,3.20
2023-03-31T03:15:22.780Z,3.10
2023-03-31T03:17:49.498Z,4.03
2023-03-31T03:20:16.324Z,4.68
2023-03-31T03:22:43.197Z,3.50
2023-03-31T03:25:11.749Z,3.37
2023-03-31T03:27:38.588Z,3.90
2023-03-31T03:30:07.163Z,3.97
2023-03-31T03:32:33.882Z,3.90
2023-03-31T03:35:01.267Z,3.33
2023-03-31T03:37:28.238Z,3.55
2023-03-31T03:39:54.942Z,3.05
2023-03-31T03:42:21.568Z,4.30
2023-03-31T03:44:48.153Z,4.60
2023-03-31T03:47:14.772Z,4.65
2023-03-31T03:49:41.376Z,2.97
2023-03-31T03:52:07.985Z,2.90
2023-03-31T03:54:34.667Z,2.80
2023-03-31T03:57:01.274Z,2.80
2023-03-31T03:59:27.976Z,3.90
2023-03-31T04:01:54.758Z,4.03
2023-03-31T04:04:21.587Z,2.87
2023-03-31T04:06:48.260Z,2.78
2023-03-31T04:09:14.885Z,2.47
2023-03-31T04:11:41.452Z,3.95
2023-03-31T04:14:08.194Z,3.37
2023-03-31T04:16:34.939Z,3.05
2023-03-31T04:19:03.934Z,2.92
2023-03-31T04:21:34.622Z,2.83
2023-03-31T04:24:04.755Z,3.15
2023-03-31T04:26:43.120Z,3.12
2023-03-31T04:29:13.844Z,3.03
2023-03-31T04:31:44.147Z,3.67
2023-03-31T04:34:14.858Z,2.50
2023-03-31T04:36:48.390Z,2.83
2023-03-31T04:39:16.102Z,3.80
2023-03-31T04:41:42.806Z,3.67
2023-03-31T04:44:09.489Z,2.97
2023-03-31T04:46:36.208Z,4.82
2023-03-31T04:49:03.078Z,6.72
2023-03-31T04:51:29.743Z,9.52
2023-03-31T04:53:56.348Z,8.02
2023-03-31T04:56:23.003Z,8.23
2023-03-31T04:58:49.699Z,10.05
2023-03-31T05:01:18.386Z,16.12
2023-03-31T05:03:48.010Z,13.75
2023-03-31T05:06:15.829Z,9.68
2023-03-31T05:08:42.789Z,24.58
2023-03-31T05:11:09.461Z,16.25
2023-03-31T05:13:36.059Z,9.20
2023-03-31T05:16:10.128Z,11.32
2023-03-31T05:18:36.996Z,8.38
2023-03-31T05:21:11.363Z,9.15
2023-03-31T05:23:37.968Z,7.43
2023-03-31T05:26:04.993Z,8.35
2023-03-31T05:28:32.578Z,7.00
2023-03-31T05:31:00.804Z,8.50
2023-03-31T05:33:27.988Z,10.20
2023-03-31T05:35:55.142Z,6.82
2023-03-31T05:38:21.820Z,7.20
2023-03-31T05:40:48.748Z,5.22
2023-03-31T05:43:16.136Z,6.95
2023-03-31T05:45:42.772Z,5.68
2023-03-31T05:48:09.446Z,7.68
2023-03-31T05:50:36.186Z,5.82
2023-03-31T05:53:02.864Z,6.57
2023-03-31T05:55:30.484Z,7.03
2023-03-31T05:57:58.442Z,6.45
2023-03-31T06:00:25.127Z,6.65
2023-03-31T06:02:52.025Z,4.97
2023-03-31T06:05:18.769Z,5.57
2023-03-31T06:07:45.415Z,4.80
2023-03-31T06:10:12.053Z,4.68
2023-03-31T06:12:38.624Z,5.75
2023-03-31T06:15:05.535Z,4.12
2023-03-31T06:17:32.126Z,5.18
2023-03-31T06:19:58.763Z,6.93
2023-03-31T06:22:25.458Z,6.35
2023-03-31T06:24:52.056Z,4.57
2023-03-31T06:27:18.716Z,5.80
2023-03-31T06:29:45.460Z,7.50
2023-03-31T06:32:12.295Z,6.12
2023-03-31T06:34:38.904Z,5.30
2023-03-31T06:37:05.961Z,8.15
2023-03-31T06:39:32.599Z,6.95
2023-03-31T06:41:59.214Z,6.40
2023-03-31T06:44:26.512Z,7.10
2023-03-31T06:46:53.259Z,9.50
2023-03-31T06:49:19.952Z,7.95
2023-03-31T06:51:46.597Z,4.35
2023-03-31T06:54:13.158Z,9.40
2023-03-31T06:56:42.795Z,14.82
2023-03-31T06:59:09.457Z,7.30
2023-03-31T07:01:39.107Z,7.32
2023-03-31T07:04:05.857Z,9.18
2023-03-31T07:06:32.961Z,6.40
2023-03-31T07:08:59.573Z,10.13
2023-03-31T07:11:26.177Z,5.90
2023-03-31T07:13:52.779Z,7.75
2023-03-31T07:16:19.688Z,7.87
2023-03-31T07:18:46.403Z,8.02
2023-03-31T07:21:14.238Z,7.85
2023-03-31T07:23:41.085Z,10.35
2023-03-31T07:26:07.970Z,7.85
2023-03-31T07:28:34.658Z,10.18
2023-03-31T07:31:01.327Z,8.07
2023-03-31T07:33:28.119Z,8.95
2023-03-31T07:36:10.741Z,6.95
2023-03-31T07:38:41.305Z,8.95
2023-03-31T07:41:11.936Z,6.18
2023-03-31T07:43:38.525Z,7.00
2023-03-31T07:46:06.062Z,10.95
2023-03-31T07:48:33.835Z,6.57
2023-03-31T07:51:00.569Z,6.12
2023-03-31T07:53:27.219Z,7.15
2023-03-31T07:55:56.862Z,6.55
2023-03-31T07:58:25.284Z,5.78
2023-03-31T08:00:51.944Z,4.90
2023-03-31T08:03:18.843Z,6.62
2023-03-31T08:05:45.590Z,5.55
2023-03-31T08:08:12.174Z,6.85
2023-03-31T08:10:38.769Z,6.47
2023-03-31T08:13:05.899Z,6.07
2023-03-31T08:15:35.318Z,6.22
2023-03-31T08:18:03.117Z,13.55
2023-03-31T08:20:29.813Z,6.30
2023-03-31T08:22:56.668Z,5.68
2023-03-31T08:25:23.944Z,4.20
2023-03-31T08:27:53.578Z,6.68
2023-03-31T08:30:20.486Z,8.25
2023-03-31T08:32:47.313Z,7.12
2023-03-31T08:35:13.958Z,4.55
2023-03-31T08:37:40.626Z,6.75
2023-03-31T08:40:09.740Z,5.85
2023-03-31T08:42:45.338Z,4.62
2023-03-31T08:45:21.385Z,9.02
2023-03-31T08:47:48.940Z,4.22
2023-03-31T08:50:17.448Z,5.57
2023-03-31T08:53:02.116Z,6.15
2023-03-31T08:55:55.092Z,7.12
2023-03-31T08:58:29.795Z,5.70
2023-03-31T09:01:03.575Z,6.78
2023-03-31T09:03:40.316Z,4.65
2023-03-31T09:06:17.573Z,4.85
2023-03-31T09:08:44.896Z,5.72
2023-03-31T09:11:31.740Z,5.85
2023-03-31T09:14:16.642Z,4.37
2023-03-31T09:16:52.303Z,5.45
2023-03-31T09:19:29.874Z,4.43
2023-03-31T09:21:56.573Z,5.45
2023-03-31T09:24:32.745Z,4.45
2023-03-31T09:27:05.619Z,6.75
2023-03-31T09:29:51.871Z,4.03
2023-03-31T09:32:19.552Z,2.95
2023-03-31T09:34:47.091Z,4.43
2023-03-31T09:37:13.852Z,5.07
2023-03-31T09:39:40.671Z,4.50
2023-03-31T09:42:07.486Z,4.25
2023-03-31T09:44:38.243Z,6.97
2023-03-31T09:47:10.856Z,5.07
2023-03-31T09:49:38.043Z,4.45
2023-03-31T09:52:13.669Z,4.43
2023-03-31T09:54:45.955Z,4.43
2023-03-31T09:57:24.081Z,3.30
2023-03-31T09:59:51.657Z,2.85
2023-03-31T10:02:33.917Z,3.37
2023-03-31T10:05:00.561Z,3.40
2023-03-31T10:07:27.191Z,3.20
2023-03-31T10:09:54.813Z,2.97
2023-03-31T10:12:24.539Z,4.60
2023-03-31T10:14:52.967Z,3.42
2023-03-31T10:17:24.129Z,4.05
2023-03-31T10:19:58.172Z,4.82
2023-03-31T10:22:35.621Z,5.20
2023-03-31T10:25:16.549Z,3.75
2023-03-31T10:27:43.244Z,3.87
2023-03-31T10:30:11.399Z,3.87
2023-03-31T10:32:42.975Z,4.20
2023-03-31T10:35:19.691Z,3.85
2023-03-31T10:37:46.401Z,3.35
2023-03-31T10:40:20.065Z,3.72
2023-03-31T10:42:47.579Z,3.67
2023-03-31T10:45:37.078Z,4.30
2023-03-31T10:48:04.596Z,2.37
2023-03-31T10:50:35.682Z,3.65
2023-03-31T10:53:07.421Z,2.83
2023-03-31T10:56:02.565Z,3.83
2023-03-31T10:59:14.025Z,2.40
2023-03-31T11:02:20.972Z,3.37
2023-03-31T11:04:50.990Z,3.05
2023-03-31T11:07:38.682Z,2.62
2023-03-31T11:10:25.392Z,3.33
2023-03-31T11:13:16.632Z,3.78
2023-03-31T11:16:02.995Z,3.92
2023-03-31T11:18:51.821Z,3.97
2023-03-31T11:21:56.802Z,5.85
2023-03-31T11:24:43.562Z,2.58
2023-03-31T11:27:16.596Z,2.72
2023-03-31T11:29:51.022Z,2.85
2023-03-31T11:32:42.801Z,2.78
2023-03-31T11:35:44.324Z,2.15
2023-03-31T11:38:21.210Z,5.03
2023-03-31T11:41:18.280Z,2.30
2023-03-31T11:43:49.750Z,3.47
2023-03-31T11:46:21.055Z,5.07
2023-03-31T11:48:58.150Z,4.18
2023-03-31T11:51:27.554Z,2.28
2023-03-31T11:53:54.809Z,4.70
2023-03-31T11:56:21.676Z,3.50
2023-03-31T11:58:57.782Z,2.25
2023-03-31T12:01:29.664Z,2.70
2023-03-31T12:03:56.316Z,5.05
2023-03-31T12:06:25.426Z,2.85
2023-03-31T12:08:58.144Z,2.83
2023-03-31T12:11:27.855Z,4.75
2023-03-31T12:14:16.233Z,2.30
2023-03-31T12:16:47.582Z,3.85
2023-03-31T12:19:28.099Z,1.30
2023-03-31T12:22:16.682Z,7.37
2023-03-31T12:24:43.311Z,3.10
2023-03-31T12:27:34.085Z,2.22
2023-03-31T12:30:02.346Z,3.10
2023-03-31T12:32:31.321Z,2.25
2023-03-31T12:35:02.096Z,3.97
2023-03-31T12:37:48.057Z,1.77
2023-03-31T12:40:33.129Z,2.17
2023-03-31T12:43:16.894Z,3.80
2023-03-31T12:45:46.299Z,2.15
2023-03-31T12:48:44.783Z,2.40
2023-03-31T12:51:40.887Z,1.67
2023-03-31T12:54:45.273Z,2.72
2023-03-31T12:57:11.824Z,2.47
2023-03-31T12:59:39.661Z,2.78
2023-03-31T13:02:15.551Z,2.35
2023-03-31T13:04:42.465Z,1.75
2023-03-31T13:07:29.097Z,2.80
2023-03-31T13:10:00.108Z,3.37
2023-03-31T13:15:14.744Z,1.77
2023-03-31T13:17:41.702Z,2.78
2023-03-31T13:20:37.604Z,2.78
2023-03-31T13:23:13.938Z,2.07
2023-03-31T13:25:53.639Z,2.03
2023-03-31T13:28:23.098Z,2.78
2023-03-31T13:31:04.161Z,2.85
2023-03-31T13:33:41.381Z,2.12
2023-03-31T13:36:18.764Z,1.98
2023-03-31T13:38:45.535Z,2.55
2023-03-31T13:41:33.728Z,3.05
2023-03-31T13:44:04.321Z,2.72
2023-03-31T13:46:46.276Z,2.35
2023-03-31T13:49:57.669Z,3.55
2023-03-31T13:52:38.602Z,2.97
2023-03-31T13:55:29.080Z,1.80
2023-03-31T13:58:24.788Z,3.22
2023-03-31T14:01:28.968Z,4.07
2023-03-31T14:04:14.500Z,2.35
2023-03-31T14:06:53.852Z,3.47
2023-03-31T14:09:31.131Z,4.65
2023-03-31T14:12:01.607Z,2.78
2023-03-31T14:14:29.970Z,2.67
2023-03-31T14:17:01.110Z,1.92
2023-03-31T14:20:12.624Z,1.67
2023-03-31T14:22:57.784Z,3.35
2023-03-31T14:25:59.476Z,2.78
2023-03-31T14:28:41.730Z,2.45
2023-03-31T14:31:28.197Z,4.20
2023-03-31T14:34:09.945Z,2.30
2023-03-31T14:36:57.828Z,2.30
2023-03-31T14:39:35.698Z,2.05
2023-03-31T14:42:06.622Z,2.50
2023-03-31T14:44:34.174Z,1.85
2023-03-31T14:47:01.784Z,4.53
2023-03-31T14:49:36.988Z,3.78
2023-03-31T14:52:16.186Z,3.12
2023-03-31T14:54:46.422Z,1.83
2023-03-31T14:57:18.632Z,2.45
2023-03-31T14:59:45.400Z,2.28
2023-03-31T15:02:16.266Z,2.92
2023-03-31T15:04:46.423Z,2.15
2023-03-31T15:07:13.089Z,2.37
2023-03-31T15:09:39.692Z,2.53
2023-03-31T15:12:12.625Z,1.58
2023-03-31T15:14:47.008Z,2.10
2023-03-31T15:17:24.694Z,3.03
2023-03-31T15:19:55.596Z,1.87
2023-03-31T15:22:23.805Z,1.92
2023-03-31T15:24:50.596Z,2.35
2023-03-31T15:27:37.773Z,3.22
2023-03-31T15:30:18.792Z,1.75
2023-03-31T15:32:45.689Z,1.73
2023-03-31T15:35:30.613Z,1.60
2023-03-31T15:37:58.099Z,2.45
2023-03-31T15:40:29.952Z,3.37
2023-03-31T15:45:30.539Z,2.37
2023-03-31T15:47:57.356Z,3.08
2023-03-31T15:50:24.314Z,1.40
2023-03-31T15:52:55.045Z,2.00
2023-03-31T15:55:26.196Z,3.00
2023-03-31T15:57:53.859Z,3.08
2023-03-31T16:00:45.499Z,2.90
2023-03-31T16:03:24.129Z,2.00
2023-03-31T16:05:58.295Z,2.10
2023-03-31T16:08:26.533Z,5.25
2023-03-31T16:11:14.064Z,3.50
2023-03-31T16:13:42.364Z,5.78
2023-03-31T16:16:10.565Z,3.03
2023-03-31T16:18:42.205Z,4.75
2023-03-31T16:21:08.931Z,2.15
2023-03-31T16:23:38.816Z,2.22
2023-03-31T16:26:07.039Z,3.55
2023-03-31T16:28:37.934Z,2.08
2023-03-31T16:31:06.331Z,2.20
2023-03-31T16:33:52.893Z,4.20
2023-03-31T16:36:19.575Z,2.83
2023-03-31T16:38:46.970Z,2.47
2023-03-31T16:41:15.918Z,2.62
2023-03-31T16:43:44.487Z,2.90
2023-03-31T16:46:11.369Z,2.80
2023-03-31T16:48:39.343Z,3.50
2023-03-31T16:51:06.013Z,2.78
2023-03-31T16:53:33.947Z,3.50
2023-03-31T16:56:00.508Z,3.53
2023-03-31T16:58:29.017Z,3.45
2023-03-31T17:00:56.579Z,3.35
2023-03-31T17:03:23.326Z,2.85
2023-03-31T17:05:52.968Z,4.30
2023-03-31T17:08:20.625Z,2.75
2023-03-31T17:11:00.275Z,1.92
2023-03-31T17:13:27.290Z,2.72
2023-03-31T17:16:01.297Z,3.15
2023-03-31T17:18:31.338Z,2.25
2023-03-31T17:21:08.324Z,2.42
2023-03-31T17:23:36.386Z,3.22
2023-03-31T17:26:04.164Z,2.95
2023-03-31T17:28:31.209Z,4.15
2023-03-31T17:30:58.584Z,2.28
2023-03-31T17:33:25.882Z,2.92
2023-03-31T17:35:56.364Z,2.10
2023-03-31T17:38:22.944Z,2.10
2023-03-31T17:40:49.521Z,3.97
2023-03-31T17:43:16.542Z,2.75
2023-03-31T17:45:43.138Z,2.47
2023-03-31T17:48:11.030Z,2.37
2023-03-31T17:50:38.451Z,2.53
2023-03-31T17:53:09.164Z,2.65
2023-03-31T17:55:39.077Z,2.30
2023-03-31T17:58:06.407Z,2.90
2023-03-31T18:00:33.028Z,2.28
2023-03-31T18:02:59.740Z,4.32
2023-03-31T18:05:27.125Z,3.00
2023-03-31T18:07:53.732Z,2.67
2023-03-31T18:10:22.616Z,1.80
2023-03-31T18:12:49.321Z,2.05
2023-03-31T18:15:15.969Z,5.82
2023-03-31T18:17:43.350Z,3.30
2023-03-31T18:20:10.769Z,3.15
2023-03-31T18:22:37.372Z,2.80
2023-03-31T18:25:04.150Z,3.50
2023-03-31T18:27:30.862Z,2.53
2023-03-31T18:29:57.477Z,2.12
2023-03-31T18:32:24.270Z,3.33
2023-03-31T18:34:50.934Z,3.70
2023-03-31T18:37:19.760Z,2.22
2023-03-31T18:39:46.487Z,1.83
2023-03-31T18:42:13.069Z,2.20
2023-03-31T18:44:39.863Z,3.45
2023-03-31T18:47:06.699Z,2.55
2023-03-31T18:49:33.515Z,2.20
2023-03-31T18:52:02.392Z,2.17
2023-03-31T18:54:28.992Z,3.10
2023-03-31T18:56:55.656Z,2.83
2023-03-31T18:59:22.812Z,3.05
2023-03-31T19:01:49.405Z,2.75
2023-03-31T19:04:16.549Z,2.58
2023-03-31T19:06:43.155Z,2.08
2023-03-31T19:09:09.800Z,3.20
2023-03-31T19:11:37.756Z,3.40
2023-03-31T19:14:04.980Z,2.65
2023-03-31T19:16:31.724Z,1.95
2023-03-31T19:18:58.445Z,4.22
2023-03-31T19:21:25.178Z,3.47
2023-03-31T19:23:51.793Z,2.22
2023-03-31T19:26:19.652Z,3.08
2023-03-31T19:28:47.959Z,3.42
2023-03-31T19:31:15.417Z,1.98
2023-03-31T19:33:42.384Z,3.62
2023-03-31T19:36:09.092Z,2.87
2023-03-31T19:38:36.804Z,3.25
2023-03-31T19:41:04.715Z,3.45
2023-03-31T19:43:31.579Z,2.00
2023-03-31T19:45:58.381Z,3.53
2023-03-31T19:48:26.555Z,3.95
2023-03-31T19:50:57.074Z,2.45
2023-03-31T19:53:23.924Z,2.80
2023-03-31T19:56:00.520Z,2.40
2023-03-31T19:58:27.589Z,2.83
2023-03-31T20:00:54.755Z,2.42
2023-03-31T20:03:22.269Z,2.42
2023-03-31T20:05:49.162Z,3.10
2023-03-31T20:08:15.771Z,3.12
2023-03-31T20:10:42.585Z,2.10
2023-03-31T20:13:09.784Z,2.40
2023-03-31T20:15:37.157Z,1.85
2023-03-31T20:18:05.127Z,1.62
2023-03-31T20:20:31.784Z,2.37
2023-03-31T20:22:59.822Z,2.08
2023-03-31T20:25:27.251Z,2.45
2023-03-31T20:27:53.879Z,2.55
2023-03-31T20:30:20.665Z,2.65
2023-03-31T20:32:47.608Z,1.83
2023-03-31T20:35:14.395Z,1.70
2023-03-31T20:37:41.034Z,3.30
2023-03-31T20:40:08.246Z,1.60
2023-03-31T20:42:35.904Z,2.53
2023-03-31T20:45:03.145Z,1.52
2023-03-31T20:47:29.775Z,2.08
2023-03-31T20:49:56.491Z,2.45
2023-03-31T20:52:23.948Z,2.67
2023-03-31T20:54:51.087Z,2.72
2023-03-31T20:57:17.902Z,2.45
2023-03-31T20:59:44.696Z,2.03
2023-03-31T21:02:12.972Z,2.90
2023-03-31T21:04:39.630Z,2.00
2023-03-31T21:07:06.220Z,2.67
2023-03-31T21:09:33.050Z,2.50
2023-03-31T21:12:01.367Z,1.70
2023-03-31T21:14:27.982Z,1.73
2023-03-31T21:16:54.678Z,2.10
2023-03-31T21:19:21.354Z,1.35
2023-03-31T21:21:48.027Z,2.12
2023-03-31T21:24:14.651Z,2.03
2023-03-31T21:26:41.384Z,2.45
2023-03-31T21:29:08.526Z,1.75
2023-03-31T21:31:35.317Z,1.73
2023-03-31T21:34:02.725Z,1.90
2023-03-31T21:36:29.439Z,1.98
2023-03-31T21:38:57.450Z,2.12
2023-03-31T21:41:28.842Z,1.60
2023-03-31T21:43:55.839Z,1.33
2023-03-31T21:46:24.503Z,1.60
2023-03-31T21:48:51.186Z,1.95
2023-03-31T21:51:18.688Z,2.10
2023-03-31T21:53:45.821Z,2.08
2023-03-31T21:56:12.447Z,1.62
2023-03-31T21:58:39.041Z,2.15
2023-03-31T22:01:06.375Z,1.50
2023-03-31T22:03:34.491Z,1.62
2023-03-31T22:06:06.878Z,1.35
2023-03-31T22:08:33.619Z,2.45
2023-03-31T22:11:00.566Z,2.17
2023-03-31T22:13:27.559Z,2.45
2023-03-31T22:15:54.264Z,1.55
2023-03-31T22:18:22.054Z,1.48
2023-03-31T22:20:49.260Z,2.75
2023-03-31T22:23:15.955Z,2.25
2023-03-31T22:25:42.630Z,1.90
2023-03-31T22:28:09.380Z,1.35
2023-03-31T22:30:36.595Z,1.45
2023-03-31T22:33:03.302Z,1.75
2023-03-31T22:35:29.942Z,1.48
2023-03-31T22:37:56.601Z,1.20
2023-03-31T22:40:23.811Z,1.45
2023-03-31T22:42:50.443Z,1.60
2023-03-31T22:45:17.041Z,1.30
2023-03-31T22:47:43.745Z,2.25
2023-03-31T22:50:11.067Z,1.50
2023-03-31T22:52:37.862Z,1.00
2023-03-31T22:55:05.489Z,3.12
2023-03-31T22:57:32.310Z,2.25
2023-03-31T22:59:59.063Z,2.10
2023-03-31T23:02:26.015Z,1.77
2023-03-31T23:04:52.694Z,1.95
2023-03-31T23:07:21.875Z,1.73
2023-03-31T23:09:48.852Z,1.40
2023-03-31T23:12:15.674Z,1.12
2023-03-31T23:14:42.326Z,1.65
2023-03-31T23:17:08.941Z,1.40
2023-03-31T23:19:35.544Z,1.10
2023-03-31T23:22:02.634Z,1.20
2023-03-31T23:24:29.986Z,1.95
2023-03-31T23:26:56.656Z,1.75
2023-03-31T23:29:23.321Z,1.52
2023-03-31T23:31:50.020Z,1.35
2023-03-31T23:34:16.753Z,1.35
2023-03-31T23:36:43.409Z,1.95
2023-03-31T23:39:10.664Z,0.95
2023-03-31T23:41:37.286Z,1.33
2023-03-31T23:44:04.622Z,1.70
2023-03-31T23:46:31.882Z,1.85
2023-03-31T23:48:58.937Z,1.08
2023-03-31T23:51:25.791Z,2.67
2023-03-31T23:53:52.527Z,1.92
2023-03-31T23:56:19.239Z,1.20
2023-03-31T23:58:45.875Z,1.73
